Pires Coelho — CUPM6 — position and weather

sailwx.info

Track history (hours):
 
Tides and Currents Weather Stations Pressure Air Temp Water Temp Dewpoint Dewpoint Depression Visibility Wind Speed Wind Dir Waves Ship Positions

Pires Coelho

Last reported at 2015-May-03 14:29 UTC. Time now 2015-May-03 14:53 UTC.
Position N 36°50' W 008°03'.

Length 27 m.

Type: Ship. MMSI: 263236000.

Date/timePositionNaut miles runAvg speedWind from/ knotsBaromVisibWave heightAir tempDewpointWater temp
2015-May-03 14:29N 36°50' W 008°03'2 2.2
2015-May-03 13:24N 36°49' W 008°05'2 2.8
2015-May-03 12:33N 36°48' W 008°08'4 2.8
2015-May-03 11:10N 36°48' W 008°13'3 2.9
2015-May-03 10:11N 36°48' W 008°16'1 1.3
2015-May-03 09:24N 36°48' W 008°18'3 2.4
2015-May-03 08:03N 36°48' W 008°14'2 2.8
2015-May-03 07:24N 36°48' W 008°11'2 2.8
2015-May-03 06:33N 36°48' W 008°08'4 2.2
2015-May-03 04:31N 36°53' W 008°10'1010.0
2015-May-03 03:33N 36°58' W 008°19'10 9.9
2015-May-03 02:33N 37°05' W 008°29'4 2.6
2015-May-03 01:05N 37°08' W 008°32'0 0.0
2015-May-02 23:31N 37°08' W 008°32'0 0.0
2015-May-02 22:31N 37°08' W 008°32'5 5.2
2015-May-02 21:33N 37°04' W 008°28'9 9.2
2015-May-02 20:33N 36°58' W 008°19'9 9.2
2015-May-02 19:33N 36°52' W 008°11'4 3.1
2015-May-02 18:09N 36°48' W 008°07'2 2.9
2015-May-02 17:33N 36°48' W 008°09'4 2.9
2015-May-02 16:20N 36°48' W 008°14'4 2.7
2015-May-02 15:03N 36°48' W 008°18'0 0.8
2015-May-02 14:32N 36°48' W 008°19'2 2.4
2015-May-02 13:33N 36°48' W 008°16'3 2.9
2015-May-02 12:33N 36°48' W 008°12'3 2.9
2015-May-02 11:34N 36°48' W 008°09'3 3.0
2015-May-02 10:28N 36°49' W 008°05'0 0.4
2015-May-02 09:33N 36°49' W 008°05'3 2.9
2015-May-02 08:34N 36°50' W 008°02'3 3.0
2015-May-02 07:31N 36°51' W 007°58'3 3.0
2015-May-02 06:34N 36°52' W 007°54'5 4.9
2015-May-02 05:33N 36°47' W 007°53'1 1.4
2015-May-02 04:33N 36°46' W 007°52'3 3.0
2015-May-02 03:33N 36°45' W 007°48'2 0.3
2015-May-01 22:21N 36°45' W 007°47'2 2.9
2015-May-01 21:32N 36°46' W 007°49'14 4.2
2015-May-01 18:05N 36°48' W 008°07'1 2.9
2015-May-01 17:33N 36°48' W 008°09'6 2.8
2015-May-01 15:33N 36°48' W 008°16'3 2.3
2015-May-01 14:27N 36°47' W 008°19'2 1.8
2015-May-01 13:34N 36°48' W 008°17'3 2.8
2015-May-01 12:34N 36°48' W 008°14'3 2.9
2015-May-01 11:34N 36°48' W 008°10'3 2.7
2015-May-01 10:30N 36°49' W 008°06'1 1.1
2015-May-01 09:33N 36°50' W 008°06'4 2.9
2015-May-01 08:16N 36°51' W 008°01'2 3.0
2015-May-01 07:33N 36°51' W 007°59'3 2.9
2015-May-01 06:34N 36°52' W 007°55'2 1.6
2015-May-01 05:33N 36°51' W 007°56'2 2.5
2015-May-01 04:34N 36°49' W 007°59'3 3.4
2015-May-01 03:32N 36°49' W 008°03'3 2.7
2015-May-01 02:33N 36°49' W 007°60'4 3.3
2015-May-01 01:29N 36°50' W 007°56'4 4.2
2015-May-01 00:33N 36°48' W 008°00'3 2.8
2015-Apr-30 23:33N 36°48' W 008°04'3 3.0
2015-Apr-30 22:33N 36°49' W 008°00'3 3.3
2015-Apr-30 21:33N 36°50' W 007°56'3 1.3
2015-Apr-30 19:33N 36°49' W 007°59'4 2.9
2015-Apr-30 18:14N 36°48' W 008°04'2 2.9
2015-Apr-30 17:33N 36°48' W 008°06'3 1.3
2015-Apr-30 15:32N 36°48' W 008°10'3 2.9
2015-Apr-30 14:33N 36°48' W 008°13'4 3.9
2015-Apr-30 13:33N 36°48' W 008°18'2 1.7
2015-Apr-30 12:21N 36°48' W 008°16'3 3.1
2015-Apr-30 11:29N 36°48' W 008°12'3 3.1
2015-Apr-30 10:33N 36°48' W 008°09'3 2.2
2015-Apr-30 09:10N 36°49' W 008°05'4 2.4
2015-Apr-30 07:31N 36°50' W 008°01'6 3.1
2015-Apr-30 05:33N 36°52' W 007°53'11 7.6
2015-Apr-30 04:09N 36°55' W 008°06'6 9.6
2015-Apr-30 03:33N 36°58' W 008°12'10 9.6
2015-Apr-30 02:33N 37°02' W 008°23'9 9.0
2015-Apr-30 01:33N 37°08' W 008°32'0 0.3
2015-Apr-30 00:30N 37°08' W 008°32'0 0.0
2015-Apr-29 23:31N 37°08' W 008°32'0 0.1
2015-Apr-29 22:28N 37°08' W 008°32'3 2.9
2015-Apr-29 21:33N 37°05' W 008°32'10 9.6
2015-Apr-29 20:33N 36°58' W 008°40'13 0.5
2015-Apr-28 20:27N 37°01' W 008°56'10 1.6
2015-Apr-28 14:22N 36°52' W 008°50'2 2.5
2015-Apr-28 13:33N 36°50' W 008°52'14 1.5
2015-Apr-28 04:13N 37°01' W 008°40'6 9.2
2015-Apr-28 03:33N 37°05' W 008°34'4 3.6
2015-Apr-28 02:30N 37°08' W 008°32'0 0.0
2015-Apr-28 00:31N 37°08' W 008°32'0 0.0
2015-Apr-27 23:31N 37°08' W 008°32'0 0.0
2015-Apr-27 22:31N 37°08' W 008°32'1 1.0
2015-Apr-27 21:33N 37°07' W 008°32'9 8.8
2015-Apr-27 20:34N 37°00' W 008°25'9 9.0
2015-Apr-27 19:34N 36°54' W 008°17'9 8.9
2015-Apr-27 18:33N 36°47' W 008°09'1 1.2
2015-Apr-27 17:33N 36°47' W 008°08'3 2.9
2015-Apr-27 16:31N 36°48' W 008°04'3 2.9
2015-Apr-27 15:33N 36°49' W 008°01'2 0.2
2015-Apr-27 08:33N 36°50' W 008°02'6 2.9
2015-Apr-27 06:31N 36°52' W 007°55'  
2015-Apr-24 09:33N 36°51' W 008°01'3 3.2
2015-Apr-24 08:29N 36°52' W 007°57'2 2.0
2015-Apr-24 07:31N 36°51' W 007°59'4 3.0
2015-Apr-24 06:09N 36°52' W 007°54'10 5.2
2015-Apr-24 04:14N 36°56' W 008°06'7 9.5
2015-Apr-24 03:33N 36°59' W 008°13'9 9.4
2015-Apr-24 02:33N 37°03' W 008°24'8 7.6
2015-Apr-24 01:29N 37°08' W 008°32'0 0.0
2015-Apr-24 00:28N 37°08' W 008°32'0 0.0
2015-Apr-23 23:26N 37°08' W 008°32'0 0.0
2015-Apr-23 22:31N 37°08' W 008°32'0 0.0
2015-Apr-23 21:32N 37°08' W 008°32'0 0.0
2015-Apr-23 20:29N 37°08' W 008°32'0 0.0
2015-Apr-23 19:31N 37°08' W 008°32'2 2.3
2015-Apr-23 18:33N 37°06' W 008°31'10 9.6
2015-Apr-23 17:33N 36°57' W 008°28'8 8.1
2015-Apr-23 16:33N 36°49' W 008°25'3 2.5
2015-Apr-23 15:19N 36°48' W 008°21'2 2.8
2015-Apr-23 14:33N 36°48' W 008°18'  
Track history (hours):
 
Tides and Currents Weather Stations Pressure Air Temp Water Temp Dewpoint Dewpoint Depression Visibility Wind Speed Wind Dir Waves Ship Positions

Pires Coelho

Last reported at 2015-May-03 14:29 UTC. Time now 2015-May-03 14:53 UTC.
Position N 36°50' W 008°03'.

Length 27 m.

Type: Ship. MMSI: 263236000.

Date/timePositionNaut miles runAvg speedWind from/ knotsBaromVisibWave heightAir tempDewpointWater temp
2015-May-03 14:29N 36°50' W 008°03'2 2.2
2015-May-03 13:24N 36°49' W 008°05'2 2.8
2015-May-03 12:33N 36°48' W 008°08'4 2.8
2015-May-03 11:10N 36°48' W 008°13'3 2.9
2015-May-03 10:11N 36°48' W 008°16'1 1.3
2015-May-03 09:24N 36°48' W 008°18'3 2.4
2015-May-03 08:03N 36°48' W 008°14'2 2.8
2015-May-03 07:24N 36°48' W 008°11'2 2.8
2015-May-03 06:33N 36°48' W 008°08'4 2.2
2015-May-03 04:31N 36°53' W 008°10'1010.0
2015-May-03 03:33N 36°58' W 008°19'10 9.9
2015-May-03 02:33N 37°05' W 008°29'4 2.6
2015-May-03 01:05N 37°08' W 008°32'0 0.0
2015-May-02 23:31N 37°08' W 008°32'0 0.0
2015-May-02 22:31N 37°08' W 008°32'5 5.2
2015-May-02 21:33N 37°04' W 008°28'9 9.2
2015-May-02 20:33N 36°58' W 008°19'9 9.2
2015-May-02 19:33N 36°52' W 008°11'4 3.1
2015-May-02 18:09N 36°48' W 008°07'2 2.9
2015-May-02 17:33N 36°48' W 008°09'4 2.9
2015-May-02 16:20N 36°48' W 008°14'4 2.7
2015-May-02 15:03N 36°48' W 008°18'0 0.8
2015-May-02 14:32N 36°48' W 008°19'2 2.4
2015-May-02 13:33N 36°48' W 008°16'3 2.9
2015-May-02 12:33N 36°48' W 008°12'3 2.9
2015-May-02 11:34N 36°48' W 008°09'3 3.0
2015-May-02 10:28N 36°49' W 008°05'0 0.4
2015-May-02 09:33N 36°49' W 008°05'3 2.9
2015-May-02 08:34N 36°50' W 008°02'3 3.0
2015-May-02 07:31N 36°51' W 007°58'3 3.0
2015-May-02 06:34N 36°52' W 007°54'5 4.9
2015-May-02 05:33N 36°47' W 007°53'1 1.4
2015-May-02 04:33N 36°46' W 007°52'3 3.0
2015-May-02 03:33N 36°45' W 007°48'2 0.3
2015-May-01 22:21N 36°45' W 007°47'2 2.9
2015-May-01 21:32N 36°46' W 007°49'14 4.2
2015-May-01 18:05N 36°48' W 008°07'1 2.9
2015-May-01 17:33N 36°48' W 008°09'6 2.8
2015-May-01 15:33N 36°48' W 008°16'3 2.3
2015-May-01 14:27N 36°47' W 008°19'2 1.8
2015-May-01 13:34N 36°48' W 008°17'3 2.8
2015-May-01 12:34N 36°48' W 008°14'3 2.9
2015-May-01 11:34N 36°48' W 008°10'3 2.7
2015-May-01 10:30N 36°49' W 008°06'1 1.1
2015-May-01 09:33N 36°50' W 008°06'4 2.9
2015-May-01 08:16N 36°51' W 008°01'2 3.0
2015-May-01 07:33N 36°51' W 007°59'3 2.9
2015-May-01 06:34N 36°52' W 007°55'2 1.6
2015-May-01 05:33N 36°51' W 007°56'2 2.5
2015-May-01 04:34N 36°49' W 007°59'3 3.4
2015-May-01 03:32N 36°49' W 008°03'3 2.7
2015-May-01 02:33N 36°49' W 007°60'4 3.3
2015-May-01 01:29N 36°50' W 007°56'4 4.2
2015-May-01 00:33N 36°48' W 008°00'3 2.8
2015-Apr-30 23:33N 36°48' W 008°04'3 3.0
2015-Apr-30 22:33N 36°49' W 008°00'3 3.3
2015-Apr-30 21:33N 36°50' W 007°56'3 1.3
2015-Apr-30 19:33N 36°49' W 007°59'4 2.9
2015-Apr-30 18:14N 36°48' W 008°04'2 2.9
2015-Apr-30 17:33N 36°48' W 008°06'3 1.3
2015-Apr-30 15:32N 36°48' W 008°10'3 2.9
2015-Apr-30 14:33N 36°48' W 008°13'4 3.9
2015-Apr-30 13:33N 36°48' W 008°18'2 1.7
2015-Apr-30 12:21N 36°48' W 008°16'3 3.1
2015-Apr-30 11:29N 36°48' W 008°12'3 3.1
2015-Apr-30 10:33N 36°48' W 008°09'3 2.2
2015-Apr-30 09:10N 36°49' W 008°05'4 2.4
2015-Apr-30 07:31N 36°50' W 008°01'6 3.1
2015-Apr-30 05:33N 36°52' W 007°53'11 7.6
2015-Apr-30 04:09N 36°55' W 008°06'6 9.6
2015-Apr-30 03:33N 36°58' W 008°12'10 9.6
2015-Apr-30 02:33N 37°02' W 008°23'9 9.0
2015-Apr-30 01:33N 37°08' W 008°32'0 0.3
2015-Apr-30 00:30N 37°08' W 008°32'0 0.0
2015-Apr-29 23:31N 37°08' W 008°32'0 0.1
2015-Apr-29 22:28N 37°08' W 008°32'3 2.9
2015-Apr-29 21:33N 37°05' W 008°32'10 9.6
2015-Apr-29 20:33N 36°58' W 008°40'13 0.5
2015-Apr-28 20:27N 37°01' W 008°56'10 1.6
2015-Apr-28 14:22N 36°52' W 008°50'2 2.5
2015-Apr-28 13:33N 36°50' W 008°52'14 1.5
2015-Apr-28 04:13N 37°01' W 008°40'6 9.2
2015-Apr-28 03:33N 37°05' W 008°34'4 3.6
2015-Apr-28 02:30N 37°08' W 008°32'0 0.0
2015-Apr-28 00:31N 37°08' W 008°32'0 0.0
2015-Apr-27 23:31N 37°08' W 008°32'0 0.0
2015-Apr-27 22:31N 37°08' W 008°32'1 1.0
2015-Apr-27 21:33N 37°07' W 008°32'9 8.8
2015-Apr-27 20:34N 37°00' W 008°25'9 9.0
2015-Apr-27 19:34N 36°54' W 008°17'9 8.9
2015-Apr-27 18:33N 36°47' W 008°09'1 1.2
2015-Apr-27 17:33N 36°47' W 008°08'3 2.9
2015-Apr-27 16:31N 36°48' W 008°04'3 2.9
2015-Apr-27 15:33N 36°49' W 008°01'2 0.2
2015-Apr-27 08:33N 36°50' W 008°02'6 2.9
2015-Apr-27 06:31N 36°52' W 007°55'  
2015-Apr-24 09:33N 36°51' W 008°01'3 3.2
2015-Apr-24 08:29N 36°52' W 007°57'2 2.0
2015-Apr-24 07:31N 36°51' W 007°59'4 3.0
2015-Apr-24 06:09N 36°52' W 007°54'10 5.2
2015-Apr-24 04:14N 36°56' W 008°06'7 9.5
2015-Apr-24 03:33N 36°59' W 008°13'9 9.4
2015-Apr-24 02:33N 37°03' W 008°24'8 7.6
2015-Apr-24 01:29N 37°08' W 008°32'0 0.0
2015-Apr-24 00:28N 37°08' W 008°32'0 0.0
2015-Apr-23 23:26N 37°08' W 008°32'0 0.0
2015-Apr-23 22:31N 37°08' W 008°32'0 0.0
2015-Apr-23 21:32N 37°08' W 008°32'0 0.0
2015-Apr-23 20:29N 37°08' W 008°32'0 0.0
2015-Apr-23 19:31N 37°08' W 008°32'2 2.3
2015-Apr-23 18:33N 37°06' W 008°31'10 9.6
2015-Apr-23 17:33N 36°57' W 008°28'8 8.1
2015-Apr-23 16:33N 36°49' W 008°25'3 2.5
2015-Apr-23 15:19N 36°48' W 008°21'2 2.8
2015-Apr-23 14:33N 36°48' W 008°18'  

Dump ship's entire track history